sensor_id;sensor_type;location;lat;lon;timestamp;P1;durP1;ratioP1;P2;durP2;ratioP2
21647;SDS011;10985;54.182;7.890;2023-08-20T00:00:16;36.55;;;12.10;;
21647;SDS011;10985;54.182;7.890;2023-08-20T00:02:42;38.78;;;12.35;;
21647;SDS011;10985;54.182;7.890;2023-08-20T00:05:09;36.60;;;11.23;;
21647;SDS011;10985;54.182;7.890;2023-08-20T00:07:35;46.72;;;11.43;;
21647;SDS011;10985;54.182;7.890;2023-08-20T00:10:02;56.97;;;11.40;;
21647;SDS011;10985;54.182;7.890;2023-08-20T00:12:29;45.55;;;10.60;;
21647;SDS011;10985;54.182;7.890;2023-08-20T00:14:56;33.72;;;10.32;;
21647;SDS011;10985;54.182;7.890;2023-08-20T00:17:32;41.75;;;10.02;;
21647;SDS011;10985;54.182;7.890;2023-08-20T00:19:59;39.53;;;9.77;;
21647;SDS011;10985;54.182;7.890;2023-08-20T00:22:25;43.35;;;11.20;;
21647;SDS011;10985;54.182;7.890;2023-08-20T00:24:54;41.72;;;10.45;;
21647;SDS011;10985;54.182;7.890;2023-08-20T00:27:20;40.22;;;11.30;;
21647;SDS011;10985;54.182;7.890;2023-08-20T00:29:46;41.00;;;11.18;;
21647;SDS011;10985;54.182;7.890;2023-08-20T00:32:12;43.80;;;10.90;;
21647;SDS011;10985;54.182;7.890;2023-08-20T00:34:37;39.45;;;11.10;;
21647;SDS011;10985;54.182;7.890;2023-08-20T00:37:03;46.53;;;11.77;;
21647;SDS011;10985;54.182;7.890;2023-08-20T00:39:29;39.25;;;11.65;;
21647;SDS011;10985;54.182;7.890;2023-08-20T00:41:55;45.20;;;12.32;;
21647;SDS011;10985;54.182;7.890;2023-08-20T00:44:20;39.05;;;11.43;;
21647;SDS011;10985;54.182;7.890;2023-08-20T00:46:46;50.45;;;12.85;;
21647;SDS011;10985;54.182;7.890;2023-08-20T00:49:12;43.42;;;12.23;;
21647;SDS011;10985;54.182;7.890;2023-08-20T00:51:38;35.95;;;11.02;;
21647;SDS011;10985;54.182;7.890;2023-08-20T00:54:04;44.38;;;10.80;;
21647;SDS011;10985;54.182;7.890;2023-08-20T00:56:30;41.28;;;10.73;;
21647;SDS011;10985;54.182;7.890;2023-08-20T00:58:55;43.38;;;12.02;;
21647;SDS011;10985;54.182;7.890;2023-08-20T01:01:22;41.95;;;11.25;;
21647;SDS011;10985;54.182;7.890;2023-08-20T01:03:48;41.78;;;12.48;;
21647;SDS011;10985;54.182;7.890;2023-08-20T01:06:20;46.20;;;12.38;;
21647;SDS011;10985;54.182;7.890;2023-08-20T01:09:05;55.58;;;11.77;;
21647;SDS011;10985;54.182;7.890;2023-08-20T01:11:49;36.95;;;11.40;;
21647;SDS011;10985;54.182;7.890;2023-08-20T01:14:20;39.50;;;10.93;;
21647;SDS011;10985;54.182;7.890;2023-08-20T01:16:45;45.42;;;10.75;;
21647;SDS011;10985;54.182;7.890;2023-08-20T01:19:13;48.17;;;12.52;;
21647;SDS011;10985;54.182;7.890;2023-08-20T01:21:47;39.33;;;9.98;;
21647;SDS011;10985;54.182;7.890;2023-08-20T01:24:24;56.00;;;11.30;;
21647;SDS011;10985;54.182;7.890;2023-08-20T01:29:51;38.25;;;11.05;;
21647;SDS011;10985;54.182;7.890;2023-08-20T01:32:17;40.53;;;10.45;;
21647;SDS011;10985;54.182;7.890;2023-08-20T01:34:45;40.20;;;10.77;;
21647;SDS011;10985;54.182;7.890;2023-08-20T01:37:10;39.10;;;9.68;;
21647;SDS011;10985;54.182;7.890;2023-08-20T01:39:36;24.80;;;8.68;;
21647;SDS011;10985;54.182;7.890;2023-08-20T01:42:02;39.67;;;9.82;;
21647;SDS011;10985;54.182;7.890;2023-08-20T01:44:27;35.55;;;9.10;;
21647;SDS011;10985;54.182;7.890;2023-08-20T01:46:53;39.92;;;10.25;;
21647;SDS011;10985;54.182;7.890;2023-08-20T01:49:18;41.22;;;9.95;;
21647;SDS011;10985;54.182;7.890;2023-08-20T01:51:44;40.72;;;9.75;;
21647;SDS011;10985;54.182;7.890;2023-08-20T01:54:09;38.03;;;10.32;;
21647;SDS011;10985;54.182;7.890;2023-08-20T01:56:35;38.97;;;11.38;;
21647;SDS011;10985;54.182;7.890;2023-08-20T01:59:01;28.67;;;10.57;;
21647;SDS011;10985;54.182;7.890;2023-08-20T02:01:27;36.63;;;11.75;;
21647;SDS011;10985;54.182;7.890;2023-08-20T02:03:52;38.50;;;12.75;;
21647;SDS011;10985;54.182;7.890;2023-08-20T02:06:18;38.30;;;12.57;;
21647;SDS011;10985;54.182;7.890;2023-08-20T02:08:44;36.13;;;12.02;;
21647;SDS011;10985;54.182;7.890;2023-08-20T02:11:09;31.55;;;11.32;;
21647;SDS011;10985;54.182;7.890;2023-08-20T02:13:35;27.98;;;11.60;;
21647;SDS011;10985;54.182;7.890;2023-08-20T02:16:01;34.20;;;13.05;;
21647;SDS011;10985;54.182;7.890;2023-08-20T02:18:28;26.45;;;11.80;;
21647;SDS011;10985;54.182;7.890;2023-08-20T02:20:54;34.92;;;10.88;;
21647;SDS011;10985;54.182;7.890;2023-08-20T02:23:20;24.70;;;9.90;;
21647;SDS011;10985;54.182;7.890;2023-08-20T02:25:46;33.55;;;10.70;;
21647;SDS011;10985;54.182;7.890;2023-08-20T02:28:12;32.60;;;11.38;;
21647;SDS011;10985;54.182;7.890;2023-08-20T02:30:41;28.85;;;10.48;;
21647;SDS011;10985;54.182;7.890;2023-08-20T02:33:10;27.13;;;11.13;;
21647;SDS011;10985;54.182;7.890;2023-08-20T02:35:36;27.65;;;10.45;;
21647;SDS011;10985;54.182;7.890;2023-08-20T02:38:02;32.45;;;9.93;;
21647;SDS011;10985;54.182;7.890;2023-08-20T02:40:28;25.30;;;10.18;;
21647;SDS011;10985;54.182;7.890;2023-08-20T02:42:53;31.23;;;10.85;;
21647;SDS011;10985;54.182;7.890;2023-08-20T02:45:19;35.65;;;11.48;;
21647;SDS011;10985;54.182;7.890;2023-08-20T02:47:44;30.58;;;10.68;;
21647;SDS011;10985;54.182;7.890;2023-08-20T02:50:10;34.53;;;10.85;;
21647;SDS011;10985;54.182;7.890;2023-08-20T02:52:35;28.00;;;10.25;;
21647;SDS011;10985;54.182;7.890;2023-08-20T02:55:01;34.53;;;10.38;;
21647;SDS011;10985;54.182;7.890;2023-08-20T02:57:29;27.20;;;10.65;;
21647;SDS011;10985;54.182;7.890;2023-08-20T02:59:56;26.77;;;10.00;;
21647;SDS011;10985;54.182;7.890;2023-08-20T03:02:21;24.15;;;9.95;;
21647;SDS011;10985;54.182;7.890;2023-08-20T03:04:47;31.35;;;10.20;;
21647;SDS011;10985;54.182;7.890;2023-08-20T03:07:13;29.38;;;10.57;;
21647;SDS011;10985;54.182;7.890;2023-08-20T03:09:38;25.35;;;10.38;;
21647;SDS011;10985;54.182;7.890;2023-08-20T03:12:04;40.42;;;10.23;;
21647;SDS011;10985;54.182;7.890;2023-08-20T03:14:30;25.45;;;8.98;;
21647;SDS011;10985;54.182;7.890;2023-08-20T03:16:55;31.08;;;10.85;;
21647;SDS011;10985;54.182;7.890;2023-08-20T03:19:21;30.15;;;10.90;;
21647;SDS011;10985;54.182;7.890;2023-08-20T03:21:47;23.98;;;9.27;;
21647;SDS011;10985;54.182;7.890;2023-08-20T03:24:12;34.13;;;10.07;;
21647;SDS011;10985;54.182;7.890;2023-08-20T03:26:38;29.83;;;10.73;;
21647;SDS011;10985;54.182;7.890;2023-08-20T03:29:03;29.95;;;10.02;;
21647;SDS011;10985;54.182;7.890;2023-08-20T03:31:29;27.67;;;10.48;;
21647;SDS011;10985;54.182;7.890;2023-08-20T03:33:54;28.30;;;9.52;;
21647;SDS011;10985;54.182;7.890;2023-08-20T03:36:20;25.27;;;9.70;;
21647;SDS011;10985;54.182;7.890;2023-08-20T03:38:46;24.55;;;10.52;;
21647;SDS011;10985;54.182;7.890;2023-08-20T03:41:11;32.53;;;10.02;;
21647;SDS011;10985;54.182;7.890;2023-08-20T03:43:37;28.40;;;10.57;;
21647;SDS011;10985;54.182;7.890;2023-08-20T03:46:02;28.23;;;9.50;;
21647;SDS011;10985;54.182;7.890;2023-08-20T03:48:28;27.38;;;9.73;;
21647;SDS011;10985;54.182;7.890;2023-08-20T03:50:53;33.67;;;9.75;;
21647;SDS011;10985;54.182;7.890;2023-08-20T03:53:19;27.13;;;8.75;;
21647;SDS011;10985;54.182;7.890;2023-08-20T03:55:48;31.67;;;9.18;;
21647;SDS011;10985;54.182;7.890;2023-08-20T03:58:14;29.13;;;9.15;;
21647;SDS011;10985;54.182;7.890;2023-08-20T04:00:40;29.02;;;9.20;;
21647;SDS011;10985;54.182;7.890;2023-08-20T04:03:05;32.60;;;9.38;;
21647;SDS011;10985;54.182;7.890;2023-08-20T04:05:35;30.60;;;9.00;;
21647;SDS011;10985;54.182;7.890;2023-08-20T04:08:02;31.48;;;8.50;;
21647;SDS011;10985;54.182;7.890;2023-08-20T04:10:28;27.25;;;8.40;;
21647;SDS011;10985;54.182;7.890;2023-08-20T04:12:54;15.95;;;7.45;;
21647;SDS011;10985;54.182;7.890;2023-08-20T04:15:19;22.58;;;8.10;;
21647;SDS011;10985;54.182;7.890;2023-08-20T04:17:45;28.60;;;7.78;;
21647;SDS011;10985;54.182;7.890;2023-08-20T04:20:11;19.38;;;7.82;;
21647;SDS011;10985;54.182;7.890;2023-08-20T04:22:36;22.95;;;7.75;;
21647;SDS011;10985;54.182;7.890;2023-08-20T04:25:02;28.77;;;8.98;;
21647;SDS011;10985;54.182;7.890;2023-08-20T04:27:28;27.67;;;8.50;;
21647;SDS011;10985;54.182;7.890;2023-08-20T04:29:54;26.73;;;7.88;;
21647;SDS011;10985;54.182;7.890;2023-08-20T04:32:21;28.55;;;8.27;;
21647;SDS011;10985;54.182;7.890;2023-08-20T04:34:46;22.33;;;7.97;;
21647;SDS011;10985;54.182;7.890;2023-08-20T04:37:14;16.23;;;7.70;;
21647;SDS011;10985;54.182;7.890;2023-08-20T04:39:40;24.13;;;8.32;;
21647;SDS011;10985;54.182;7.890;2023-08-20T04:42:05;29.92;;;8.20;;
21647;SDS011;10985;54.182;7.890;2023-08-20T04:44:31;21.98;;;7.55;;
21647;SDS011;10985;54.182;7.890;2023-08-20T04:46:56;30.42;;;7.38;;
21647;SDS011;10985;54.182;7.890;2023-08-20T04:49:22;29.67;;;8.23;;
21647;SDS011;10985;54.182;7.890;2023-08-20T04:51:47;22.58;;;7.45;;
21647;SDS011;10985;54.182;7.890;2023-08-20T04:54:13;19.85;;;7.55;;
21647;SDS011;10985;54.182;7.890;2023-08-20T04:56:38;25.48;;;8.15;;
21647;SDS011;10985;54.182;7.890;2023-08-20T04:59:04;28.65;;;7.55;;
21647;SDS011;10985;54.182;7.890;2023-08-20T05:01:29;27.30;;;7.30;;
21647;SDS011;10985;54.182;7.890;2023-08-20T05:03:55;21.45;;;7.38;;
21647;SDS011;10985;54.182;7.890;2023-08-20T05:06:21;27.10;;;7.53;;
21647;SDS011;10985;54.182;7.890;2023-08-20T05:08:46;24.15;;;7.30;;
21647;SDS011;10985;54.182;7.890;2023-08-20T05:11:11;24.67;;;7.60;;
21647;SDS011;10985;54.182;7.890;2023-08-20T05:13:37;23.67;;;6.60;;
21647;SDS011;10985;54.182;7.890;2023-08-20T05:16:02;16.88;;;6.93;;
21647;SDS011;10985;54.182;7.890;2023-08-20T05:18:28;25.95;;;6.97;;
21647;SDS011;10985;54.182;7.890;2023-08-20T05:20:54;24.10;;;7.32;;
21647;SDS011;10985;54.182;7.890;2023-08-20T05:23:19;25.35;;;6.65;;
21647;SDS011;10985;54.182;7.890;2023-08-20T05:25:45;23.88;;;6.68;;
21647;SDS011;10985;54.182;7.890;2023-08-20T05:28:10;28.92;;;6.32;;
21647;SDS011;10985;54.182;7.890;2023-08-20T05:30:36;23.23;;;6.80;;
21647;SDS011;10985;54.182;7.890;2023-08-20T05:33:01;23.58;;;6.40;;
21647;SDS011;10985;54.182;7.890;2023-08-20T05:35:27;28.90;;;7.03;;
21647;SDS011;10985;54.182;7.890;2023-08-20T05:37:53;25.67;;;6.45;;
21647;SDS011;10985;54.182;7.890;2023-08-20T05:40:18;23.23;;;6.60;;
21647;SDS011;10985;54.182;7.890;2023-08-20T05:42:45;25.42;;;6.93;;
21647;SDS011;10985;54.182;7.890;2023-08-20T05:45:11;20.70;;;6.13;;
21647;SDS011;10985;54.182;7.890;2023-08-20T05:47:36;22.63;;;6.32;;
21647;SDS011;10985;54.182;7.890;2023-08-20T05:50:02;26.73;;;6.93;;
21647;SDS011;10985;54.182;7.890;2023-08-20T05:52:28;23.27;;;6.85;;
21647;SDS011;10985;54.182;7.890;2023-08-20T05:54:53;26.05;;;7.15;;
21647;SDS011;10985;54.182;7.890;2023-08-20T05:57:19;23.58;;;7.97;;
21647;SDS011;10985;54.182;7.890;2023-08-20T05:59:44;23.08;;;6.68;;
21647;SDS011;10985;54.182;7.890;2023-08-20T06:02:15;22.45;;;6.82;;
21647;SDS011;10985;54.182;7.890;2023-08-20T06:04:42;20.67;;;6.45;;
21647;SDS011;10985;54.182;7.890;2023-08-20T06:07:08;28.95;;;6.80;;
21647;SDS011;10985;54.182;7.890;2023-08-20T06:09:34;24.52;;;7.10;;
21647;SDS011;10985;54.182;7.890;2023-08-20T06:12:00;18.10;;;6.45;;
21647;SDS011;10985;54.182;7.890;2023-08-20T06:14:25;29.95;;;7.72;;
21647;SDS011;10985;54.182;7.890;2023-08-20T06:16:51;25.77;;;9.10;;
21647;SDS011;10985;54.182;7.890;2023-08-20T06:19:16;22.50;;;7.45;;
21647;SDS011;10985;54.182;7.890;2023-08-20T06:21:42;19.60;;;6.35;;
21647;SDS011;10985;54.182;7.890;2023-08-20T06:24:08;15.27;;;6.88;;
21647;SDS011;10985;54.182;7.890;2023-08-20T06:26:33;24.27;;;6.38;;
21647;SDS011;10985;54.182;7.890;2023-08-20T06:28:59;20.52;;;6.35;;
21647;SDS011;10985;54.182;7.890;2023-08-20T06:31:24;22.27;;;6.43;;
21647;SDS011;10985;54.182;7.890;2023-08-20T06:33:50;18.75;;;6.10;;
21647;SDS011;10985;54.182;7.890;2023-08-20T06:36:16;23.42;;;6.43;;
21647;SDS011;10985;54.182;7.890;2023-08-20T06:38:41;33.35;;;5.95;;
21647;SDS011;10985;54.182;7.890;2023-08-20T06:41:07;21.95;;;6.10;;
21647;SDS011;10985;54.182;7.890;2023-08-20T06:43:32;20.42;;;5.65;;
21647;SDS011;10985;54.182;7.890;2023-08-20T06:45:58;22.92;;;6.30;;
21647;SDS011;10985;54.182;7.890;2023-08-20T06:48:23;22.73;;;6.45;;
21647;SDS011;10985;54.182;7.890;2023-08-20T06:50:49;25.13;;;6.45;;
21647;SDS011;10985;54.182;7.890;2023-08-20T06:53:15;18.05;;;5.70;;
21647;SDS011;10985;54.182;7.890;2023-08-20T06:55:41;18.35;;;5.55;;
21647;SDS011;10985;54.182;7.890;2023-08-20T06:58:06;19.23;;;5.55;;
21647;SDS011;10985;54.182;7.890;2023-08-20T07:00:32;16.25;;;4.88;;
21647;SDS011;10985;54.182;7.890;2023-08-20T07:02:57;18.25;;;5.97;;
21647;SDS011;10985;54.182;7.890;2023-08-20T07:05:23;14.60;;;4.93;;
21647;SDS011;10985;54.182;7.890;2023-08-20T07:07:48;15.13;;;4.90;;
21647;SDS011;10985;54.182;7.890;2023-08-20T07:10:14;18.60;;;5.93;;
21647;SDS011;10985;54.182;7.890;2023-08-20T07:12:39;14.80;;;4.65;;
21647;SDS011;10985;54.182;7.890;2023-08-20T07:15:05;18.33;;;5.55;;
21647;SDS011;10985;54.182;7.890;2023-08-20T07:17:31;12.00;;;4.60;;
21647;SDS011;10985;54.182;7.890;2023-08-20T07:19:57;18.27;;;5.38;;
21647;SDS011;10985;54.182;7.890;2023-08-20T07:22:22;15.45;;;4.93;;
21647;SDS011;10985;54.182;7.890;2023-08-20T07:24:48;14.57;;;4.68;;
21647;SDS011;10985;54.182;7.890;2023-08-20T07:27:13;21.98;;;5.65;;
21647;SDS011;10985;54.182;7.890;2023-08-20T07:29:40;17.13;;;4.50;;
21647;SDS011;10985;54.182;7.890;2023-08-20T07:32:06;18.42;;;5.25;;
21647;SDS011;10985;54.182;7.890;2023-08-20T07:34:31;20.42;;;4.90;;
21647;SDS011;10985;54.182;7.890;2023-08-20T07:36:59;20.98;;;4.80;;
21647;SDS011;10985;54.182;7.890;2023-08-20T07:39:24;16.27;;;4.60;;
21647;SDS011;10985;54.182;7.890;2023-08-20T07:41:50;16.08;;;4.30;;
21647;SDS011;10985;54.182;7.890;2023-08-20T07:44:15;15.23;;;4.05;;
21647;SDS011;10985;54.182;7.890;2023-08-20T07:46:41;18.38;;;4.32;;
21647;SDS011;10985;54.182;7.890;2023-08-20T07:49:06;12.52;;;4.15;;
21647;SDS011;10985;54.182;7.890;2023-08-20T07:51:32;13.35;;;3.97;;
21647;SDS011;10985;54.182;7.890;2023-08-20T07:53:57;17.00;;;3.90;;
21647;SDS011;10985;54.182;7.890;2023-08-20T07:56:24;16.63;;;4.90;;
21647;SDS011;10985;54.182;7.890;2023-08-20T07:58:49;12.38;;;4.30;;
21647;SDS011;10985;54.182;7.890;2023-08-20T08:01:15;12.32;;;3.65;;
21647;SDS011;10985;54.182;7.890;2023-08-20T08:03:41;11.07;;;3.72;;
21647;SDS011;10985;54.182;7.890;2023-08-20T08:06:07;10.43;;;3.63;;
21647;SDS011;10985;54.182;7.890;2023-08-20T08:08:32;15.98;;;4.20;;
21647;SDS011;10985;54.182;7.890;2023-08-20T08:10:58;12.88;;;4.18;;
21647;SDS011;10985;54.182;7.890;2023-08-20T08:13:23;12.80;;;3.67;;
21647;SDS011;10985;54.182;7.890;2023-08-20T08:15:50;16.73;;;3.97;;
21647;SDS011;10985;54.182;7.890;2023-08-20T08:18:16;15.13;;;4.15;;
21647;SDS011;10985;54.182;7.890;2023-08-20T08:20:42;17.45;;;4.43;;
21647;SDS011;10985;54.182;7.890;2023-08-20T08:23:08;15.90;;;4.10;;
21647;SDS011;10985;54.182;7.890;2023-08-20T08:25:33;11.52;;;4.20;;
21647;SDS011;10985;54.182;7.890;2023-08-20T08:27:59;12.65;;;3.42;;
21647;SDS011;10985;54.182;7.890;2023-08-20T08:30:24;14.85;;;3.88;;
21647;SDS011;10985;54.182;7.890;2023-08-20T08:32:50;15.15;;;4.30;;
21647;SDS011;10985;54.182;7.890;2023-08-20T08:35:16;15.10;;;3.70;;
21647;SDS011;10985;54.182;7.890;2023-08-20T08:37:42;15.98;;;4.18;;
21647;SDS011;10985;54.182;7.890;2023-08-20T08:40:08;13.15;;;4.38;;
21647;SDS011;10985;54.182;7.890;2023-08-20T08:42:34;10.23;;;3.78;;
21647;SDS011;10985;54.182;7.890;2023-08-20T08:44:59;14.35;;;3.72;;
21647;SDS011;10985;54.182;7.890;2023-08-20T08:47:25;9.90;;;4.05;;
21647;SDS011;10985;54.182;7.890;2023-08-20T08:49:51;12.38;;;3.88;;
21647;SDS011;10985;54.182;7.890;2023-08-20T08:52:19;15.57;;;4.35;;
21647;SDS011;10985;54.182;7.890;2023-08-20T08:54:46;10.63;;;3.60;;
21647;SDS011;10985;54.182;7.890;2023-08-20T08:57:12;15.73;;;4.43;;
21647;SDS011;10985;54.182;7.890;2023-08-20T08:59:39;17.48;;;4.20;;
21647;SDS011;10985;54.182;7.890;2023-08-20T09:02:08;14.00;;;3.83;;
21647;SDS011;10985;54.182;7.890;2023-08-20T09:04:41;17.75;;;4.32;;
21647;SDS011;10985;54.182;7.890;2023-08-20T09:07:14;14.05;;;3.50;;
21647;SDS011;10985;54.182;7.890;2023-08-20T09:09:46;15.48;;;3.08;;
21647;SDS011;10985;54.182;7.890;2023-08-20T09:12:13;17.65;;;3.92;;
21647;SDS011;10985;54.182;7.890;2023-08-20T09:14:39;11.27;;;3.17;;
21647;SDS011;10985;54.182;7.890;2023-08-20T09:17:10;12.85;;;3.03;;
21647;SDS011;10985;54.182;7.890;2023-08-20T09:19:36;12.98;;;3.67;;
21647;SDS011;10985;54.182;7.890;2023-08-20T09:22:02;17.77;;;3.67;;
21647;SDS011;10985;54.182;7.890;2023-08-20T09:24:38;14.02;;;3.05;;
21647;SDS011;10985;54.182;7.890;2023-08-20T09:27:10;14.48;;;2.92;;
21647;SDS011;10985;54.182;7.890;2023-08-20T09:32:21;17.55;;;4.13;;
21647;SDS011;10985;54.182;7.890;2023-08-20T09:34:51;9.50;;;2.92;;
21647;SDS011;10985;54.182;7.890;2023-08-20T09:37:19;14.77;;;3.10;;
21647;SDS011;10985;54.182;7.890;2023-08-20T09:39:45;16.33;;;3.65;;
21647;SDS011;10985;54.182;7.890;2023-08-20T09:42:11;17.83;;;4.18;;
21647;SDS011;10985;54.182;7.890;2023-08-20T09:44:40;16.48;;;3.88;;
21647;SDS011;10985;54.182;7.890;2023-08-20T09:47:10;12.05;;;3.08;;
21647;SDS011;10985;54.182;7.890;2023-08-20T09:49:41;15.50;;;4.07;;
21647;SDS011;10985;54.182;7.890;2023-08-20T09:52:08;18.55;;;4.28;;
21647;SDS011;10985;54.182;7.890;2023-08-20T09:55:03;11.15;;;3.22;;
21647;SDS011;10985;54.182;7.890;2023-08-20T09:57:36;16.40;;;3.60;;
21647;SDS011;10985;54.182;7.890;2023-08-20T10:00:07;16.75;;;3.63;;
21647;SDS011;10985;54.182;7.890;2023-08-20T10:02:37;14.98;;;3.30;;
21647;SDS011;10985;54.182;7.890;2023-08-20T10:05:04;17.95;;;3.45;;
21647;SDS011;10985;54.182;7.890;2023-08-20T10:07:30;20.10;;;3.55;;
21647;SDS011;10985;54.182;7.890;2023-08-20T10:09:57;18.10;;;3.50;;
21647;SDS011;10985;54.182;7.890;2023-08-20T10:12:25;13.23;;;3.15;;
21647;SDS011;10985;54.182;7.890;2023-08-20T10:14:55;15.05;;;3.90;;
21647;SDS011;10985;54.182;7.890;2023-08-20T10:17:22;13.45;;;3.40;;
21647;SDS011;10985;54.182;7.890;2023-08-20T10:19:49;12.88;;;3.42;;
21647;SDS011;10985;54.182;7.890;2023-08-20T10:22:18;12.73;;;3.58;;
21647;SDS011;10985;54.182;7.890;2023-08-20T10:24:48;15.00;;;3.22;;
21647;SDS011;10985;54.182;7.890;2023-08-20T10:27:25;16.60;;;3.15;;
21647;SDS011;10985;54.182;7.890;2023-08-20T10:29:53;13.90;;;3.22;;
21647;SDS011;10985;54.182;7.890;2023-08-20T10:32:20;12.35;;;2.83;;
21647;SDS011;10985;54.182;7.890;2023-08-20T10:35:05;15.55;;;4.13;;
21647;SDS011;10985;54.182;7.890;2023-08-20T10:37:32;15.45;;;3.30;;
21647;SDS011;10985;54.182;7.890;2023-08-20T10:39:57;12.95;;;3.33;;
21647;SDS011;10985;54.182;7.890;2023-08-20T10:42:26;15.82;;;3.63;;
21647;SDS011;10985;54.182;7.890;2023-08-20T10:47:43;15.90;;;4.15;;
21647;SDS011;10985;54.182;7.890;2023-08-20T10:50:10;17.13;;;3.95;;
21647;SDS011;10985;54.182;7.890;2023-08-20T10:52:40;16.27;;;3.85;;
21647;SDS011;10985;54.182;7.890;2023-08-20T10:55:06;16.35;;;3.55;;
21647;SDS011;10985;54.182;7.890;2023-08-20T10:57:36;18.13;;;3.80;;
21647;SDS011;10985;54.182;7.890;2023-08-20T11:00:04;15.25;;;4.00;;
21647;SDS011;10985;54.182;7.890;2023-08-20T11:02:40;14.82;;;3.80;;
21647;SDS011;10985;54.182;7.890;2023-08-20T11:05:19;13.63;;;3.63;;
21647;SDS011;10985;54.182;7.890;2023-08-20T11:07:48;20.48;;;3.70;;
21647;SDS011;10985;54.182;7.890;2023-08-20T11:10:14;15.40;;;3.70;;
21647;SDS011;10985;54.182;7.890;2023-08-20T11:12:41;18.65;;;3.90;;
21647;SDS011;10985;54.182;7.890;2023-08-20T11:15:09;15.13;;;3.50;;
21647;SDS011;10985;54.182;7.890;2023-08-20T11:17:39;16.38;;;3.38;;
21647;SDS011;10985;54.182;7.890;2023-08-20T11:20:05;16.00;;;3.70;;
21647;SDS011;10985;54.182;7.890;2023-08-20T11:22:32;17.48;;;3.60;;
21647;SDS011;10985;54.182;7.890;2023-08-20T11:24:58;14.77;;;3.22;;
21647;SDS011;10985;54.182;7.890;2023-08-20T11:27:27;19.08;;;4.18;;
21647;SDS011;10985;54.182;7.890;2023-08-20T11:29:53;16.45;;;3.65;;
21647;SDS011;10985;54.182;7.890;2023-08-20T11:32:21;19.80;;;4.00;;
21647;SDS011;10985;54.182;7.890;2023-08-20T11:34:48;19.35;;;3.60;;
21647;SDS011;10985;54.182;7.890;2023-08-20T11:37:17;21.77;;;3.85;;
21647;SDS011;10985;54.182;7.890;2023-08-20T11:39:45;19.40;;;4.05;;
21647;SDS011;10985;54.182;7.890;2023-08-20T11:42:15;17.02;;;3.80;;
21647;SDS011;10985;54.182;7.890;2023-08-20T11:44:42;22.38;;;4.18;;
21647;SDS011;10985;54.182;7.890;2023-08-20T11:47:13;18.98;;;4.35;;
21647;SDS011;10985;54.182;7.890;2023-08-20T11:49:40;17.27;;;3.63;;
21647;SDS011;10985;54.182;7.890;2023-08-20T11:52:05;17.65;;;4.38;;
21647;SDS011;10985;54.182;7.890;2023-08-20T11:54:31;20.30;;;4.15;;
21647;SDS011;10985;54.182;7.890;2023-08-20T11:57:01;20.02;;;4.20;;
21647;SDS011;10985;54.182;7.890;2023-08-20T11:59:28;16.63;;;4.35;;
21647;SDS011;10985;54.182;7.890;2023-08-20T12:01:57;15.07;;;3.70;;
21647;SDS011;10985;54.182;7.890;2023-08-20T12:04:30;21.77;;;4.00;;
21647;SDS011;10985;54.182;7.890;2023-08-20T12:07:03;18.60;;;4.20;;
21647;SDS011;10985;54.182;7.890;2023-08-20T12:09:30;17.65;;;3.97;;
21647;SDS011;10985;54.182;7.890;2023-08-20T12:11:56;18.50;;;4.03;;
21647;SDS011;10985;54.182;7.890;2023-08-20T12:14:23;24.15;;;4.38;;
21647;SDS011;10985;54.182;7.890;2023-08-20T12:16:49;19.05;;;3.95;;
21647;SDS011;10985;54.182;7.890;2023-08-20T12:19:17;17.20;;;3.80;;
21647;SDS011;10985;54.182;7.890;2023-08-20T12:21:43;14.50;;;4.13;;
21647;SDS011;10985;54.182;7.890;2023-08-20T12:24:09;19.38;;;4.20;;
21647;SDS011;10985;54.182;7.890;2023-08-20T12:26:35;21.13;;;4.13;;
21647;SDS011;10985;54.182;7.890;2023-08-20T12:29:01;23.17;;;4.30;;
21647;SDS011;10985;54.182;7.890;2023-08-20T12:31:27;20.63;;;3.85;;
21647;SDS011;10985;54.182;7.890;2023-08-20T12:33:52;16.30;;;3.80;;
21647;SDS011;10985;54.182;7.890;2023-08-20T12:36:18;19.50;;;4.00;;
21647;SDS011;10985;54.182;7.890;2023-08-20T12:38:43;16.13;;;3.42;;
21647;SDS011;10985;54.182;7.890;2023-08-20T12:41:09;16.02;;;4.05;;
21647;SDS011;10985;54.182;7.890;2023-08-20T12:43:34;18.92;;;3.90;;
21647;SDS011;10985;54.182;7.890;2023-08-20T12:46:00;18.00;;;3.45;;
21647;SDS011;10985;54.182;7.890;2023-08-20T12:48:25;23.08;;;4.00;;
21647;SDS011;10985;54.182;7.890;2023-08-20T12:50:51;20.90;;;4.50;;
21647;SDS011;10985;54.182;7.890;2023-08-20T12:53:16;18.48;;;4.90;;
21647;SDS011;10985;54.182;7.890;2023-08-20T12:55:42;18.13;;;3.78;;
21647;SDS011;10985;54.182;7.890;2023-08-20T12:58:07;21.85;;;4.22;;
21647;SDS011;10985;54.182;7.890;2023-08-20T13:00:33;17.75;;;4.32;;
21647;SDS011;10985;54.182;7.890;2023-08-20T13:02:58;19.98;;;4.20;;
21647;SDS011;10985;54.182;7.890;2023-08-20T13:05:24;16.65;;;4.45;;
21647;SDS011;10985;54.182;7.890;2023-08-20T13:07:51;16.10;;;3.97;;
21647;SDS011;10985;54.182;7.890;2023-08-20T13:10:17;19.23;;;4.55;;
21647;SDS011;10985;54.182;7.890;2023-08-20T13:12:47;19.02;;;4.07;;
21647;SDS011;10985;54.182;7.890;2023-08-20T13:15:15;17.65;;;4.28;;
21647;SDS011;10985;54.182;7.890;2023-08-20T13:17:45;14.90;;;3.92;;
21647;SDS011;10985;54.182;7.890;2023-08-20T13:20:12;14.60;;;4.07;;
21647;SDS011;10985;54.182;7.890;2023-08-20T13:22:37;17.58;;;4.32;;
21647;SDS011;10985;54.182;7.890;2023-08-20T13:25:03;21.20;;;4.07;;
21647;SDS011;10985;54.182;7.890;2023-08-20T13:27:29;21.52;;;4.22;;
21647;SDS011;10985;54.182;7.890;2023-08-20T13:29:55;22.17;;;4.40;;
21647;SDS011;10985;54.182;7.890;2023-08-20T13:32:21;20.15;;;4.53;;
21647;SDS011;10985;54.182;7.890;2023-08-20T13:34:47;18.40;;;3.60;;
21647;SDS011;10985;54.182;7.890;2023-08-20T13:37:12;16.05;;;4.15;;
21647;SDS011;10985;54.182;7.890;2023-08-20T13:39:38;15.80;;;3.80;;
21647;SDS011;10985;54.182;7.890;2023-08-20T13:42:04;18.15;;;3.83;;
21647;SDS011;10985;54.182;7.890;2023-08-20T13:44:29;19.35;;;3.92;;
21647;SDS011;10985;54.182;7.890;2023-08-20T13:46:55;18.80;;;3.85;;
21647;SDS011;10985;54.182;7.890;2023-08-20T13:49:20;19.25;;;3.60;;
21647;SDS011;10985;54.182;7.890;2023-08-20T13:51:46;19.83;;;4.28;;
21647;SDS011;10985;54.182;7.890;2023-08-20T13:54:11;13.57;;;3.47;;
21647;SDS011;10985;54.182;7.890;2023-08-20T13:56:37;12.75;;;3.75;;
21647;SDS011;10985;54.182;7.890;2023-08-20T13:59:02;12.88;;;3.53;;
21647;SDS011;10985;54.182;7.890;2023-08-20T14:01:28;16.75;;;3.85;;
21647;SDS011;10985;54.182;7.890;2023-08-20T14:03:53;16.80;;;3.70;;
21647;SDS011;10985;54.182;7.890;2023-08-20T14:06:19;18.40;;;4.60;;
21647;SDS011;10985;54.182;7.890;2023-08-20T14:08:45;19.55;;;3.67;;
21647;SDS011;10985;54.182;7.890;2023-08-20T14:11:10;15.23;;;3.78;;
21647;SDS011;10985;54.182;7.890;2023-08-20T14:13:36;21.40;;;3.83;;
21647;SDS011;10985;54.182;7.890;2023-08-20T14:16:01;16.70;;;3.90;;
21647;SDS011;10985;54.182;7.890;2023-08-20T14:18:27;16.52;;;4.20;;
21647;SDS011;10985;54.182;7.890;2023-08-20T14:20:53;14.48;;;3.35;;
21647;SDS011;10985;54.182;7.890;2023-08-20T14:23:18;17.60;;;3.95;;
21647;SDS011;10985;54.182;7.890;2023-08-20T14:25:44;19.33;;;3.75;;
21647;SDS011;10985;54.182;7.890;2023-08-20T14:28:09;13.52;;;3.88;;
21647;SDS011;10985;54.182;7.890;2023-08-20T14:30:38;18.48;;;3.40;;
21647;SDS011;10985;54.182;7.890;2023-08-20T14:33:05;13.55;;;3.80;;
21647;SDS011;10985;54.182;7.890;2023-08-20T14:35:31;18.33;;;3.72;;